Terminal Aerodrome Forecast
Issued by NWS

Home | Current Version | Previous Version | Text Only | Print | Product List | Glossary On
Versions: 1 2 3 4 5 6 7 8 9 10 11 12 13 14 15 16 17 18 19 20 21 22 23
000
FTUS43 KPAH 231451 AAA
TAFCGI
TAF AMD
KCGI 231451Z 2315/2412 VRB04KT P6SM SCT040
     FM232200 35007KT P6SM SCT040
     FM240100 VRB02KT P6SM SCT050 BKN200
     FM240700 00000KT 2SM BR SKC=

USA.gov is the U.S. government's official web portal to all federal, state and local government web resources and services.